Time;durP1;ratioP1;P1;durP2;ratioP2;P2;SDS_P1;SDS_P2;PMS_P1;PMS_P2;Temp;Humidity;BMP_temperature;BMP_pressure;BME280_temperature;BME280_humidity;BME280_pressure;Samples;Min_cycle;Max_cycle;Signal;HPM_P1;HPM_P2
2021/03/06 00:00:11;;;;;;;4.67;3.97;;;1.30;99.90;;;;;;5096307;28;20429;-51
2021/03/06 00:02:37;;;;;;;5.90;4.13;;;1.30;99.90;;;;;;5096274;28;20657;-55
2021/03/06 00:05:04;;;;;;;4.83;3.70;;;1.30;99.90;;;;;;5090004;28;20444;-50
2021/03/06 00:07:29;;;;;;;5.07;3.80;;;1.20;99.90;;;;;;5076454;28;20511;-50
2021/03/06 00:09:55;;;;;;;3.77;3.33;;;1.20;99.90;;;;;;5075519;28;20558;-50
2021/03/06 00:12:21;;;;;;;5.43;4.10;;;1.20;99.90;;;;;;5075489;28;20175;-52
2021/03/06 00:14:46;;;;;;;5.67;4.13;;;1.20;99.90;;;;;;5074932;28;20197;-54
2021/03/06 00:17:12;;;;;;;6.37;4.60;;;1.20;99.90;;;;;;5078186;28;20178;-52
2021/03/06 00:19:37;;;;;;;4.97;3.77;;;1.20;99.90;;;;;;5077538;28;20691;-55
2021/03/06 00:22:03;;;;;;;5.13;3.93;;;1.20;99.90;;;;;;5076478;28;20174;-50
2021/03/06 00:24:28;;;;;;;5.33;3.87;;;1.10;99.90;;;;;;5075992;28;20178;-53
2021/03/06 00:26:55;;;;;;;5.90;4.23;;;1.00;99.90;;;;;;5077654;28;20198;-55
2021/03/06 00:29:20;;;;;;;5.47;4.07;;;0.90;99.90;;;;;;5077152;28;20287;-56
2021/03/06 00:31:46;;;;;;;6.90;5.20;;;0.90;99.90;;;;;;5077099;28;20396;-51
2021/03/06 00:34:11;;;;;;;6.33;4.80;;;0.90;99.90;;;;;;5077012;28;20506;-52
2021/03/06 00:36:37;;;;;;;6.13;4.70;;;0.90;99.90;;;;;;5076871;28;20194;-51
2021/03/06 00:39:04;;;;;;;5.73;4.40;;;0.90;99.90;;;;;;5075770;28;20166;-50
2021/03/06 00:41:30;;;;;;;7.60;5.03;;;0.90;99.90;;;;;;5079861;28;20186;-54
2021/03/06 00:43:55;;;;;;;5.30;4.20;;;0.90;99.90;;;;;;5081316;28;20416;-55
2021/03/06 00:46:21;;;;;;;5.53;4.57;;;0.80;99.90;;;;;;5097142;28;20285;-52
2021/03/06 00:48:46;;;;;;;5.77;4.23;;;0.80;99.90;;;;;;5093530;28;20217;-52
2021/03/06 00:51:12;;;;;;;5.20;4.00;;;0.70;99.90;;;;;;5075363;28;20181;-49
2021/03/06 00:53:38;;;;;;;5.47;4.20;;;0.70;99.90;;;;;;5076938;28;20179;-50
2021/03/06 00:56:04;;;;;;;7.33;4.70;;;0.70;99.90;;;;;;5076159;28;20194;-55
2021/03/06 00:58:29;;;;;;;7.80;5.03;;;0.70;99.90;;;;;;5077203;28;20217;-56
2021/03/06 01:00:55;;;;;;;7.43;5.43;;;0.70;99.90;;;;;;5076430;28;20235;-51
2021/03/06 01:03:21;;;;;;;6.80;4.67;;;0.70;99.90;;;;;;5090323;28;20291;-50
2021/03/06 01:05:47;;;;;;;6.30;4.87;;;0.70;99.90;;;;;;5096218;28;20463;-54
2021/03/06 01:08:13;;;;;;;6.00;4.33;;;0.70;99.90;;;;;;5096936;28;20166;-52
2021/03/06 01:10:41;;;;;;;7.73;4.30;;;0.70;99.90;;;;;;5096303;28;20604;-54
2021/03/06 01:13:08;;;;;;;4.33;3.63;;;0.60;99.90;;;;;;5095325;28;20526;-51
2021/03/06 01:15:34;;;;;;;5.37;4.20;;;0.60;99.90;;;;;;5096222;28;20792;-52
2021/03/06 01:18:00;;;;;;;5.43;4.20;;;0.60;99.90;;;;;;5083059;28;20397;-55
2021/03/06 01:20:26;;;;;;;5.93;4.43;;;0.50;99.90;;;;;;5076601;28;20405;-51
2021/03/06 01:22:52;;;;;;;4.87;4.03;;;0.50;99.90;;;;;;5076034;28;20458;-55
2021/03/06 01:25:18;;;;;;;5.60;4.23;;;0.50;99.90;;;;;;5075918;28;20190;-49
2021/03/06 01:27:43;;;;;;;5.00;4.50;;;0.40;99.90;;;;;;5076161;28;20178;-51
2021/03/06 01:30:10;;;;;;;7.57;4.17;;;0.30;99.90;;;;;;5076096;28;20220;-50
2021/03/06 01:32:35;;;;;;;4.50;3.70;;;0.30;99.90;;;;;;5075867;28;20227;-51
2021/03/06 01:35:02;;;;;;;6.40;4.00;;;0.20;99.90;;;;;;5076186;28;20436;-50
2021/03/06 01:37:27;;;;;;;4.47;3.83;;;0.20;99.90;;;;;;5076224;28;20206;-55
2021/03/06 01:39:53;;;;;;;4.97;4.10;;;0.20;99.90;;;;;;5075660;28;20432;-54
2021/03/06 01:42:20;;;;;;;7.07;4.47;;;0.30;99.90;;;;;;5075532;28;20630;-51
2021/03/06 01:44:46;;;;;;;4.43;3.70;;;0.30;99.90;;;;;;5075300;28;20226;-52
2021/03/06 01:47:12;;;;;;;5.43;4.23;;;0.30;99.90;;;;;;5075769;28;20804;-54
2021/03/06 01:49:37;;;;;;;5.07;4.07;;;0.20;99.90;;;;;;5075928;28;20202;-55
2021/03/06 01:52:05;;;;;;;6.50;4.00;;;0.30;99.90;;;;;;5075538;28;20166;-56
2021/03/06 01:54:31;;;;;;;4.70;3.80;;;0.30;99.90;;;;;;5075408;28;20661;-52
2021/03/06 01:56:56;;;;;;;5.10;4.00;;;0.30;99.90;;;;;;5075733;28;20409;-56
2021/03/06 01:59:22;;;;;;;4.40;3.70;;;0.30;99.90;;;;;;5075025;28;20424;-52
2021/03/06 02:01:48;;;;;;;5.47;4.07;;;0.30;99.90;;;;;;5075323;28;20171;-52
2021/03/06 02:04:13;;;;;;;5.07;3.93;;;0.30;99.90;;;;;;5075672;28;20170;-50
2021/03/06 02:06:39;;;;;;;5.57;3.90;;;0.30;99.90;;;;;;5075843;28;20615;-50
2021/03/06 02:09:05;;;;;;;4.80;3.97;;;0.30;99.90;;;;;;5075500;28;20198;-50
2021/03/06 02:11:52;;;;;;;3.93;3.30;;;0.20;99.90;;;;;;5075102;28;20216;-50
2021/03/06 02:14:43;;;;;;;4.07;3.60;;;0.10;99.90;;;;;;5073575;28;20415;-56
2021/03/06 02:17:37;;;;;;;4.80;3.93;;;0.10;99.90;;;;;;5076007;28;20400;-52
2021/03/06 02:20:34;;;;;;;5.13;3.90;;;0.00;99.90;;;;;;5075668;28;20404;-50
2021/03/06 02:23:24;;;;;;;4.90;3.60;;;0.00;99.90;;;;;;5073601;28;20450;-55
2021/03/06 02:26:20;;;;;;;5.37;3.40;;;-0.10;99.90;;;;;;5074562;28;20462;-51
2021/03/06 02:28:58;;;;;;;4.60;3.50;;;-0.10;99.90;;;;;;5074767;28;20452;-50
2021/03/06 02:31:27;;;;;;;5.63;4.00;;;-0.10;99.90;;;;;;5074455;28;20401;-49
2021/03/06 02:34:06;;;;;;;5.97;4.10;;;-0.10;99.90;;;;;;5075995;28;20408;-50
2021/03/06 02:36:34;;;;;;;4.93;3.60;;;-0.10;99.90;;;;;;5074535;28;20428;-51
2021/03/06 02:39:03;;;;;;;4.67;3.70;;;-0.20;99.90;;;;;;5072780;28;20408;-51
2021/03/06 02:41:30;;;;;;;4.47;3.57;;;-0.20;99.90;;;;;;5075963;28;20421;-54
2021/03/06 02:43:56;;;;;;;4.80;3.63;;;-0.20;99.90;;;;;;5075709;28;20402;-53
2021/03/06 02:46:25;;;;;;;5.23;4.00;;;-0.30;99.90;;;;;;5091021;28;20463;-51
2021/03/06 02:48:52;;;;;;;4.27;3.73;;;-0.30;99.90;;;;;;5095104;28;20434;-57
2021/03/06 02:51:18;;;;;;;5.80;4.00;;;-0.30;99.90;;;;;;5094694;28;20446;-53
2021/03/06 02:53:44;;;;;;;4.50;3.40;;;-0.30;99.90;;;;;;5079821;28;20458;-50
2021/03/06 02:56:09;;;;;;;5.13;4.07;;;-0.30;99.90;;;;;;5074282;28;20198;-52
2021/03/06 02:58:45;;;;;;;4.40;3.60;;;-0.30;99.90;;;;;;5074710;28;20170;-55
2021/03/06 03:01:21;;;;;;;7.87;3.83;;;-0.30;99.90;;;;;;5073595;28;20181;-52
2021/03/06 03:04:12;;;;;;;4.90;3.93;;;-0.40;99.90;;;;;;5075053;28;20419;-54
2021/03/06 03:06:43;;;;;;;4.10;3.53;;;-0.40;99.90;;;;;;5074806;28;20887;-51
2021/03/06 03:09:19;;;;;;;3.70;3.30;;;-0.40;99.90;;;;;;5073670;28;20452;-50
2021/03/06 03:11:57;;;;;;;4.83;3.70;;;-0.30;99.90;;;;;;5082677;28;20423;-52
2021/03/06 03:14:35;;;;;;;4.27;3.60;;;-0.40;99.90;;;;;;5094603;28;20419;-50
2021/03/06 03:17:09;;;;;;;4.93;3.33;;;-0.40;99.90;;;;;;5095271;28;20412;-50
2021/03/06 03:19:43;;;;;;;5.73;3.70;;;-0.40;99.90;;;;;;5094485;28;20404;-54
2021/03/06 03:22:10;;;;;;;3.77;3.37;;;-0.40;99.90;;;;;;5094309;28;20407;-52
2021/03/06 03:24:39;;;;;;;4.90;3.97;;;-0.40;99.90;;;;;;5093971;28;20410;-50
2021/03/06 03:27:10;;;;;;;4.93;4.00;;;-0.40;99.90;;;;;;5093815;28;20431;-50
2021/03/06 03:29:40;;;;;;;6.13;5.03;;;-0.40;99.90;;;;;;5094663;28;20456;-50
2021/03/06 03:32:09;;;;;;;6.67;5.10;;;-0.40;99.90;;;;;;5092894;28;20417;-51
2021/03/06 03:34:35;;;;;;;6.20;4.47;;;-0.40;99.90;;;;;;5096241;28;20404;-52
2021/03/06 03:37:02;;;;;;;5.13;3.83;;;-0.40;99.90;;;;;;5098515;28;20404;-52
2021/03/06 03:39:29;;;;;;;4.97;3.50;;;-0.40;99.90;;;;;;5098303;28;20510;-52
2021/03/06 03:41:55;;;;;;;4.83;3.73;;;-0.40;99.90;;;;;;5098102;28;20415;-49
2021/03/06 03:44:21;;;;;;;5.40;4.07;;;-0.40;99.90;;;;;;5098412;28;20434;-49
2021/03/06 03:46:47;;;;;;;5.07;3.33;;;-0.40;99.90;;;;;;5097970;28;20426;-51
2021/03/06 03:49:17;;;;;;;4.73;3.60;;;-0.40;99.90;;;;;;5098015;28;20534;-51
2021/03/06 03:51:43;;;;;;;4.67;3.63;;;-0.40;99.90;;;;;;5098072;28;20181;-54
2021/03/06 03:54:09;;;;;;;4.43;3.47;;;-0.50;99.90;;;;;;5097673;28;20967;-53
2021/03/06 03:56:35;;;;;;;4.27;3.63;;;-0.50;99.90;;;;;;5097733;28;20189;-56
2021/03/06 03:59:02;;;;;;;4.03;3.47;;;-0.50;99.90;;;;;;5097910;28;20404;-54
2021/03/06 04:01:27;;;;;;;5.33;3.77;;;-0.50;99.90;;;;;;5096904;28;20745;-51
2021/03/06 04:03:53;;;;;;;4.63;3.53;;;-0.50;99.90;;;;;;5098433;28;20430;-51
2021/03/06 04:06:18;;;;;;;5.37;3.73;;;-0.50;99.90;;;;;;5097460;28;20280;-52
2021/03/06 04:08:44;;;;;;;5.53;3.60;;;-0.50;99.90;;;;;;5097204;28;20174;-53
2021/03/06 04:11:09;;;;;;;5.17;3.87;;;-0.50;99.90;;;;;;5097033;28;20305;-56
2021/03/06 04:13:35;;;;;;;5.60;3.63;;;-0.50;99.90;;;;;;5097562;28;20201;-57
2021/03/06 04:16:01;;;;;;;4.13;3.40;;;-0.50;99.90;;;;;;5097304;28;20194;-50
2021/03/06 04:18:26;;;;;;;4.80;3.83;;;-0.60;99.90;;;;;;5096132;28;20170;-51
2021/03/06 04:20:52;;;;;;;6.00;4.30;;;-0.60;99.90;;;;;;5097027;28;20209;-54
2021/03/06 04:23:17;;;;;;;4.53;3.77;;;-0.60;99.90;;;;;;5097662;28;20177;-50
2021/03/06 04:25:43;;;;;;;4.70;3.67;;;-0.60;99.90;;;;;;5097270;28;20201;-53
2021/03/06 04:28:10;;;;;;;4.67;3.53;;;-0.60;99.90;;;;;;5097817;28;20170;-51
2021/03/06 04:30:35;;;;;;;3.80;3.37;;;-0.70;99.90;;;;;;5097450;28;20194;-49
2021/03/06 04:33:01;;;;;;;8.30;3.70;;;-0.70;99.90;;;;;;5097194;28;20415;-51
2021/03/06 04:35:27;;;;;;;4.80;3.57;;;-0.70;99.90;;;;;;5097036;28;20192;-49
2021/03/06 04:37:52;;;;;;;4.33;3.20;;;-0.70;99.90;;;;;;5097539;28;20166;-50
2021/03/06 04:40:18;;;;;;;5.27;3.93;;;-0.80;99.90;;;;;;5096363;28;20186;-53
2021/03/06 04:42:43;;;;;;;4.70;3.30;;;-0.80;99.90;;;;;;5096592;28;20174;-56
2021/03/06 04:45:10;;;;;;;3.80;3.40;;;-0.80;99.90;;;;;;5096385;28;20189;-56
2021/03/06 04:47:40;;;;;;;3.50;3.20;;;-0.80;99.90;;;;;;5096707;28;20200;-52
2021/03/06 04:50:05;;;;;;;5.23;3.60;;;-0.90;99.90;;;;;;5096909;28;20462;-49
2021/03/06 04:52:31;;;;;;;5.73;4.07;;;-0.90;99.90;;;;;;5095811;28;20415;-50
2021/03/06 04:54:56;;;;;;;4.40;3.80;;;-0.90;99.90;;;;;;5097031;28;20423;-49
2021/03/06 04:57:22;;;;;;;5.10;3.80;;;-0.90;99.90;;;;;;5097225;28;20166;-55
2021/03/06 04:59:49;;;;;;;4.60;3.80;;;-0.90;99.90;;;;;;5097548;28;20264;-53
2021/03/06 05:02:14;;;;;;;3.73;3.33;;;-0.90;99.90;;;;;;5096276;28;20173;-53
2021/03/06 05:04:41;;;;;;;5.00;3.73;;;-1.00;99.90;;;;;;5096785;28;20421;-52
2021/03/06 05:07:07;;;;;;;5.10;3.90;;;-1.00;99.90;;;;;;5096798;28;20181;-53
2021/03/06 05:09:32;;;;;;;4.30;3.90;;;-1.00;99.90;;;;;;5096011;28;20452;-50
2021/03/06 05:11:58;;;;;;;5.07;3.70;;;-1.00;99.90;;;;;;5096203;28;20170;-50
2021/03/06 05:14:23;;;;;;;4.67;4.17;;;-0.90;99.90;;;;;;5095492;28;20169;-51
2021/03/06 05:16:49;;;;;;;6.47;4.50;;;-0.90;99.90;;;;;;5096367;28;20174;-56
2021/03/06 05:19:14;;;;;;;8.40;6.23;;;-1.00;99.90;;;;;;5096822;28;20166;-55
2021/03/06 05:21:40;;;;;;;5.33;4.17;;;-1.00;99.90;;;;;;5096434;28;20541;-50
2021/03/06 05:24:06;;;;;;;3.70;3.30;;;-1.00;99.90;;;;;;5096905;28;20165;-51
2021/03/06 05:26:32;;;;;;;4.10;3.50;;;-1.00;99.90;;;;;;5096812;28;20182;-52
2021/03/06 05:28:58;;;;;;;5.17;4.10;;;-1.10;99.90;;;;;;5094901;28;20420;-50
2021/03/06 05:31:24;;;;;;;4.30;3.57;;;-1.10;99.90;;;;;;5095852;28;20754;-56
2021/03/06 05:33:49;;;;;;;5.47;4.00;;;-1.10;99.90;;;;;;5096217;28;20602;-50
2021/03/06 05:36:15;;;;;;;3.60;3.27;;;-1.10;99.90;;;;;;5093827;28;20193;-55
2021/03/06 05:38:41;;;;;;;5.00;3.60;;;-1.10;99.90;;;;;;5095904;28;20180;-50
2021/03/06 05:41:06;;;;;;;5.10;3.63;;;-1.10;99.90;;;;;;5088874;28;20198;-50
2021/03/06 05:43:32;;;;;;;4.90;3.70;;;-1.10;99.90;;;;;;5075566;28;20174;-49
2021/03/06 05:45:58;;;;;;;5.63;3.90;;;-1.10;99.90;;;;;;5075302;28;20190;-50
2021/03/06 05:48:23;;;;;;;4.97;3.77;;;-1.10;99.90;;;;;;5092562;28;20189;-51
2021/03/06 05:50:51;;;;;;;5.40;4.07;;;-1.20;99.90;;;;;;5099498;28;20212;-50
2021/03/06 05:53:20;;;;;;;3.60;3.30;;;-1.20;99.90;;;;;;5097464;27;20186;-55
2021/03/06 05:55:51;;;;;;;4.97;3.60;;;-1.10;99.90;;;;;;5095750;28;21008;-49
2021/03/06 05:58:19;;;;;;;4.07;3.57;;;-1.10;99.90;;;;;;5094044;28;20419;-51
2021/03/06 06:00:45;;;;;;;5.63;3.70;;;-1.10;99.90;;;;;;5106656;28;20430;-52
2021/03/06 06:03:14;;;;;;;4.00;3.47;;;-1.10;99.90;;;;;;5096222;28;20468;-52
2021/03/06 06:05:40;;;;;;;4.53;3.63;;;-1.10;99.90;;;;;;5097571;28;20202;-56
2021/03/06 06:08:06;;;;;;;5.67;3.77;;;-1.10;99.90;;;;;;5096768;28;20780;-53
2021/03/06 06:10:32;;;;;;;5.80;4.63;;;-1.10;99.90;;;;;;5094615;28;20201;-50
2021/03/06 06:12:58;;;;;;;7.73;5.30;;;-1.20;99.90;;;;;;5094821;28;20731;-50
2021/03/06 06:15:24;;;;;;;5.43;4.50;;;-1.10;99.90;;;;;;5095119;28;20189;-49
2021/03/06 06:17:49;;;;;;;6.83;5.13;;;-1.10;99.90;;;;;;5075551;28;20423;-49
2021/03/06 06:20:16;;;;;;;7.20;5.77;;;-1.10;99.90;;;;;;5087241;28;20556;-52
2021/03/06 06:22:42;;;;;;;9.93;6.47;;;-1.00;99.90;;;;;;5074093;28;20182;-50
2021/03/06 06:25:08;;;;;;;7.83;5.57;;;-0.90;99.90;;;;;;5091326;28;20440;-54
2021/03/06 06:27:34;;;;;;;7.73;4.63;;;-0.90;99.90;;;;;;5075771;28;20726;-52
2021/03/06 06:30:02;;;;;;;5.00;4.50;;;-0.90;99.90;;;;;;5077137;28;20932;-52
2021/03/06 06:32:40;;;;;;;5.17;4.37;;;-0.80;99.90;;;;;;5076047;28;20420;-50
2021/03/06 06:35:08;;;;;;;6.40;5.27;;;-0.70;99.90;;;;;;5075515;28;20494;-51
2021/03/06 06:37:34;;;;;;;5.70;4.77;;;-0.60;99.90;;;;;;5083025;28;20439;-53
2021/03/06 06:40:16;;;;;;;6.10;4.87;;;-0.60;99.90;;;;;;5082585;28;20458;-51
2021/03/06 06:42:42;;;;;;;7.17;4.73;;;-0.50;99.90;;;;;;5082246;28;20420;-54
2021/03/06 06:45:08;;;;;;;7.67;4.83;;;-0.40;99.90;;;;;;5085123;28;20833;-53
2021/03/06 06:47:52;;;;;;;5.77;4.87;;;-0.30;99.90;;;;;;5084930;28;20208;-51
2021/03/06 06:50:32;;;;;;;6.07;4.33;;;-0.20;99.90;;;;;;5073879;28;20452;-49
2021/03/06 06:52:58;;;;;;;6.13;4.10;;;-0.20;99.90;;;;;;5093611;28;20426;-50
2021/03/06 06:55:37;;;;;;;4.87;4.20;;;-0.10;99.90;;;;;;5094154;28;20424;-54
2021/03/06 06:58:03;;;;;;;4.93;4.30;;;0.10;99.90;;;;;;5085028;28;20527;-54
2021/03/06 07:00:31;;;;;;;6.13;4.53;;;0.20;99.90;;;;;;5086907;28;20473;-53
2021/03/06 07:02:58;;;;;;;5.50;4.57;;;0.30;99.90;;;;;;5086307;28;20432;-51
2021/03/06 07:05:29;;;;;;;6.30;5.17;;;0.30;99.90;;;;;;5074056;28;20515;-52
2021/03/06 07:07:55;;;;;;;7.97;6.00;;;0.50;99.90;;;;;;5085131;28;20408;-50
2021/03/06 07:10:22;;;;;;;7.83;4.80;;;0.60;99.90;;;;;;5091178;27;20472;-51
2021/03/06 07:13:00;;;;;;;5.67;4.47;;;0.80;99.90;;;;;;5085064;28;20933;-49
2021/03/06 07:15:27;;;;;;;6.47;5.17;;;0.90;99.90;;;;;;5074094;28;20487;-50
2021/03/06 07:17:56;;;;;;;6.90;5.37;;;1.10;99.90;;;;;;5087900;28;20570;-55
2021/03/06 07:20:22;;;;;;;8.50;6.13;;;1.20;99.90;;;;;;5093680;28;20404;-51
2021/03/06 07:22:51;;;;;;;8.17;6.27;;;1.30;99.90;;;;;;5076779;28;20427;-50
2021/03/06 07:25:18;;;;;;;8.80;5.80;;;1.40;99.90;;;;;;5073847;28;20193;-56
2021/03/06 07:27:44;;;;;;;6.47;5.67;;;1.50;99.90;;;;;;5073349;28;20488;-53
2021/03/06 07:30:11;;;;;;;5.57;5.00;;;1.60;99.90;;;;;;5073600;28;20480;-50
2021/03/06 07:32:39;;;;;;;6.17;4.77;;;1.80;99.90;;;;;;5073333;28;20404;-49
2021/03/06 07:35:07;;;;;;;6.47;5.27;;;1.90;99.90;;;;;;5073971;28;20420;-52
2021/03/06 07:37:34;;;;;;;4.97;4.47;;;2.00;99.90;;;;;;5074047;28;20404;-49
2021/03/06 07:40:03;;;;;;;5.77;4.70;;;2.10;99.90;;;;;;5073435;28;20448;-51
2021/03/06 07:42:55;;;;;;;5.80;4.97;;;2.20;99.90;;;;;;5073390;28;20445;-53
2021/03/06 07:45:27;;;;;;;6.17;4.83;;;2.10;99.90;;;;;;5083491;28;20508;-52
2021/03/06 07:47:57;;;;;;;6.07;5.13;;;2.20;99.90;;;;;;5073902;28;20405;-50
2021/03/06 07:50:30;;;;;;;6.97;5.30;;;2.30;99.90;;;;;;5077180;28;20440;-50
2021/03/06 07:53:01;;;;;;;7.40;5.23;;;2.40;99.90;;;;;;5079349;28;20420;-55
2021/03/06 07:55:28;;;;;;;5.10;4.57;;;2.40;99.90;;;;;;5073103;28;20433;-52
2021/03/06 07:58:07;;;;;;;4.77;4.20;;;2.50;99.90;;;;;;5073517;28;20907;-49
2021/03/06 08:00:39;;;;;;;5.60;4.17;;;2.50;99.90;;;;;;5076807;28;20429;-50
2021/03/06 08:03:30;;;;;;;5.27;4.63;;;2.40;99.90;;;;;;5081815;28;20413;-54
2021/03/06 08:05:55;;;;;;;4.37;3.97;;;2.40;99.90;;;;;;5073730;28;20479;-55
2021/03/06 08:08:33;;;;;;;4.83;4.30;;;2.50;99.90;;;;;;5073146;28;20796;-54
2021/03/06 08:11:08;;;;;;;4.97;4.27;;;2.60;99.90;;;;;;5072987;28;20289;-51
2021/03/06 08:13:34;;;;;;;5.90;4.47;;;2.90;99.90;;;;;;5072448;28;20408;-54
2021/03/06 08:16:19;;;;;;;5.57;4.17;;;3.10;99.90;;;;;;5073497;28;20428;-49
2021/03/06 08:18:45;;;;;;;5.20;4.70;;;3.30;99.90;;;;;;5073436;28;20175;-55
2021/03/06 08:21:32;;;;;;;4.73;3.90;;;3.20;99.90;;;;;;5076249;28;20175;-51
2021/03/06 08:24:18;;;;;;;4.83;4.30;;;3.30;99.90;;;;;;5076517;28;20181;-56
2021/03/06 08:27:02;;;;;;;5.60;4.90;;;3.20;99.90;;;;;;5076860;28;20662;-56
2021/03/06 08:29:28;;;;;;;6.07;5.47;;;3.40;99.90;;;;;;5086878;28;20213;-50
2021/03/06 08:31:56;;;;;;;5.87;4.90;;;3.50;99.90;;;;;;5076974;28;20189;-50
2021/03/06 08:34:36;;;;;;;5.53;4.40;;;3.60;99.90;;;;;;5076453;28;20557;-51
2021/03/06 08:37:16;;;;;;;4.40;3.97;;;3.60;99.90;;;;;;5076947;28;20308;-56
2021/03/06 08:39:50;;;;;;;4.30;3.60;;;3.80;99.90;;;;;;5076346;28;20783;-55
2021/03/06 08:42:21;;;;;;;4.67;4.07;;;3.90;99.50;;;;;;5076386;28;20185;-54
2021/03/06 08:44:47;;;;;;;5.33;3.60;;;3.90;99.70;;;;;;5076801;28;20251;-50
2021/03/06 08:47:25;;;;;;;4.97;3.80;;;4.20;99.90;;;;;;5076497;28;20171;-50
2021/03/06 08:49:53;;;;;;;4.30;3.77;;;4.50;99.60;;;;;;5075726;28;20202;-50
2021/03/06 08:52:22;;;;;;;6.27;3.70;;;4.50;97.60;;;;;;5076112;28;20174;-55
2021/03/06 08:54:48;;;;;;;4.30;3.30;;;4.80;98.50;;;;;;5082351;28;20534;-49
2021/03/06 08:57:40;;;;;;;4.60;3.90;;;5.20;98.20;;;;;;5095345;28;20664;-53
2021/03/06 09:00:09;;;;;;;4.50;3.50;;;5.90;97.70;;;;;;5082043;28;20267;-57
2021/03/06 09:02:35;;;;;;;4.13;3.70;;;6.30;96.10;;;;;;5086895;28;20676;-49
2021/03/06 09:05:07;;;;;;;3.67;3.27;;;6.60;95.70;;;;;;5096623;28;20216;-49
2021/03/06 09:07:44;;;;;;;6.40;3.53;;;7.10;93.40;;;;;;5096989;28;20174;-52
2021/03/06 09:10:17;;;;;;;5.40;3.67;;;7.40;94.40;;;;;;5078444;28;20216;-51
2021/03/06 09:12:49;;;;;;;4.20;3.80;;;8.10;93.10;;;;;;5076062;28;20286;-53
2021/03/06 09:15:35;;;;;;;3.93;3.53;;;8.90;91.30;;;;;;5076704;28;20568;-52
2021/03/06 09:18:01;;;;;;;4.43;3.53;;;9.80;87.80;;;;;;5075724;28;20182;-51
2021/03/06 09:20:28;;;;;;;3.93;3.50;;;10.70;84.00;;;;;;5076682;28;20209;-50
2021/03/06 09:22:54;;;;;;;3.87;3.13;;;11.70;76.80;;;;;;5076274;28;20236;-51
2021/03/06 09:25:39;;;;;;;3.80;3.30;;;12.10;69.70;;;;;;5076471;28;20266;-51
2021/03/06 09:28:10;;;;;;;3.47;3.00;;;12.80;71.90;;;;;;5076078;28;20203;-50
2021/03/06 09:30:42;;;;;;;3.53;3.23;;;13.10;67.60;;;;;;5076116;28;20205;-53
2021/03/06 09:33:34;;;;;;;3.53;3.20;;;14.00;65.90;;;;;;5075331;28;20224;-55
2021/03/06 09:36:04;;;;;;;3.03;2.73;;;16.50;66.40;;;;;;5075690;28;20194;-49
2021/03/06 09:38:30;;;;;;;3.27;2.90;;;18.30;56.30;;;;;;5075892;28;20175;-51
2021/03/06 09:40:57;;;;;;;3.13;2.70;;;19.60;52.50;;;;;;5076055;28;20227;-50
2021/03/06 09:43:24;;;;;;;3.13;2.90;;;20.80;47.10;;;;;;5075105;28;20175;-51
2021/03/06 09:45:50;;;;;;;3.30;3.00;;;21.00;43.50;;;;;;5084312;28;20209;-52
2021/03/06 09:48:15;;;;;;;3.38;3.08;;;20.60;43.20;;;;;;5083096;28;20346;-56
2021/03/06 09:50:46;;;;;;;2.65;2.42;;;21.60;43.40;;;;;;5081966;28;20195;-55
2021/03/06 09:53:37;;;;;;;2.20;2.08;;;23.10;38.00;;;;;;5083707;28;20185;-50
2021/03/06 09:56:07;;;;;;;2.60;2.40;;;24.40;37.50;;;;;;5082397;28;20201;-50
2021/03/06 09:58:33;;;;;;;2.70;2.50;;;24.20;36.30;;;;;;5086680;28;20526;-55
2021/03/06 10:01:32;;;;;;;2.38;2.17;;;25.60;37.20;;;;;;5076712;28;20647;-51
2021/03/06 10:03:58;;;;;;;2.35;2.15;;;27.60;33.30;;;;;;5004470;28;20573;-55
2021/03/06 10:06:30;;;;;;;2.00;1.90;;;28.50;31.70;;;;;;5003369;28;20232;-52
2021/03/06 10:08:58;;;;;;;2.00;1.90;;;28.50;31.00;;;;;;5001802;28;20181;-51
2021/03/06 10:11:30;;;;;;;2.50;2.30;;;29.80;29.70;;;;;;5001016;28;20665;-51
2021/03/06 10:13:56;;;;;;;2.28;2.08;;;30.70;28.50;;;;;;5002125;28;20271;-51
2021/03/06 10:16:22;;;;;;;2.40;2.20;;;31.70;26.30;;;;;;5000614;28;20276;-51
2021/03/06 10:18:49;;;;;;;2.40;2.10;;;32.00;25.60;;;;;;5000459;28;20208;-55
2021/03/06 10:21:22;;;;;;;2.40;2.20;;;31.90;24.60;;;;;;5001629;28;20228;-54
2021/03/06 10:24:12;;;;;;;2.30;2.10;;;31.10;25.30;;;;;;5001069;28;20228;-53
2021/03/06 10:26:57;;;;;;;2.40;2.20;;;31.90;25.20;;;;;;5001331;28;20224;-49
2021/03/06 10:29:24;;;;;;;1.98;1.65;;;33.20;24.40;;;;;;4999032;28;20209;-50
2021/03/06 10:31:59;;;;;;;1.80;1.70;;;34.60;23.90;;;;;;5005439;28;20215;-52
2021/03/06 10:34:27;;;;;;;1.98;1.85;;;34.90;22.90;;;;;;5001473;28;20194;-56
2021/03/06 10:37:11;;;;;;;2.40;2.20;;;34.60;22.40;;;;;;5001478;28;20203;-55
2021/03/06 10:40:10;;;;;;;2.00;1.90;;;34.50;21.70;;;;;;5047519;28;20229;-54
2021/03/06 10:42:48;;;;;;;1.55;1.45;;;35.30;22.30;;;;;;5024700;28;20255;-56
2021/03/06 10:45:30;;;;;;;1.38;1.35;;;36.10;20.20;;;;;;5023799;28;20215;-52
2021/03/06 10:47:58;;;;;;;2.17;1.70;;;36.30;20.10;;;;;;5018609;28;20399;-54
2021/03/06 10:50:38;;;;;;;1.90;1.80;;;35.50;20.10;;;;;;5022592;28;20215;-51
2021/03/06 10:53:21;;;;;;;1.60;1.50;;;35.20;19.90;;;;;;5024790;28;20187;-56
2021/03/06 10:55:48;;;;;;;1.20;1.10;;;35.30;20.10;;;;;;5024109;28;20195;-55
2021/03/06 10:58:15;;;;;;;2.55;1.13;;;35.60;19.50;;;;;;5026038;28;20202;-57
2021/03/06 11:00:41;;;;;;;1.98;1.88;;;36.80;20.10;;;;;;5024316;28;20659;-58
2021/03/06 11:03:09;;;;;;;1.52;1.42;;;37.50;19.40;;;;;;5020082;28;20180;-52
2021/03/06 11:05:35;;;;;;;1.30;1.20;;;37.90;18.80;;;;;;5028335;28;20215;-58
2021/03/06 11:08:19;;;;;;;1.10;1.10;;;38.10;19.40;;;;;;5025362;28;20182;-56
2021/03/06 11:10:49;;;;;;;1.63;1.40;;;38.60;18.90;;;;;;5024325;28;20643;-58
2021/03/06 11:13:16;;;;;;;1.30;1.20;;;38.70;17.60;;;;;;5030968;28;20190;-57
2021/03/06 11:15:46;;;;;;;1.70;1.58;;;38.60;19.00;;;;;;5019816;28;20289;-55
2021/03/06 11:18:13;;;;;;;2.88;2.25;;;38.40;17.60;;;;;;5053560;28;20185;-52
2021/03/06 11:20:39;;;;;;;3.30;2.10;;;35.20;17.00;;;;;;5073124;28;20213;-50
2021/03/06 11:23:05;;;;;;;2.08;1.90;;;30.80;19.30;;;;;;5071313;28;20178;-55
2021/03/06 11:25:30;;;;;;;1.88;1.77;;;29.70;20.20;;;;;;5089221;28;20210;-57
2021/03/06 11:27:58;;;;;;;2.40;2.17;;;28.80;19.60;;;;;;5091849;28;20169;-58
2021/03/06 11:30:25;;;;;;;2.05;1.92;;;28.40;21.30;;;;;;5074795;28;20610;-55
2021/03/06 11:32:53;;;;;;;1.60;1.50;;;29.00;21.10;;;;;;5072132;28;20175;-54
2021/03/06 11:35:20;;;;;;;1.75;1.65;;;30.00;20.90;;;;;;5072277;28;20205;-53
2021/03/06 11:37:46;;;;;;;2.80;1.80;;;30.80;20.50;;;;;;5074370;28;20248;-52
2021/03/06 11:40:15;;;;;;;2.05;1.85;;;32.20;20.20;;;;;;5073944;28;20198;-53
2021/03/06 11:42:40;;;;;;;2.00;1.80;;;30.70;19.70;;;;;;5073991;28;20174;-55
2021/03/06 11:45:08;;;;;;;1.98;1.77;;;29.30;21.00;;;;;;5080963;28;20229;-55
2021/03/06 11:47:34;;;;;;;2.20;2.00;;;29.70;21.20;;;;;;5095459;28;20174;-58
2021/03/06 11:50:00;;;;;;;2.10;1.90;;;29.80;20.70;;;;;;5095292;28;20626;-52
2021/03/06 11:52:26;;;;;;;2.40;2.20;;;30.30;21.00;;;;;;5093853;28;20192;-56
2021/03/06 11:54:51;;;;;;;2.45;2.25;;;30.90;20.10;;;;;;5095473;28;20549;-54
2021/03/06 11:57:17;;;;;;;3.75;2.92;;;30.30;21.00;;;;;;5097762;28;20579;-51
2021/03/06 11:59:42;;;;;;;2.15;1.95;;;31.20;21.40;;;;;;5097765;28;20584;-54
2021/03/06 12:02:08;;;;;;;2.90;2.08;;;32.80;20.60;;;;;;5097332;28;20643;-54
2021/03/06 12:04:34;;;;;;;1.85;1.75;;;31.50;20.40;;;;;;5098280;28;20182;-58
2021/03/06 12:06:59;;;;;;;3.38;2.13;;;31.50;20.10;;;;;;5098072;28;20173;-50
2021/03/06 12:09:25;;;;;;;1.85;1.75;;;32.10;20.40;;;;;;5092449;28;20603;-56
2021/03/06 12:11:50;;;;;;;2.42;2.08;;;32.80;20.30;;;;;;5077151;28;20232;-54
2021/03/06 12:14:16;;;;;;;3.15;2.20;;;32.50;20.00;;;;;;5086107;28;20268;-57
2021/03/06 12:16:41;;;;;;;2.45;2.25;;;32.90;20.10;;;;;;5080868;28;20202;-56
2021/03/06 12:19:07;;;;;;;2.53;2.33;;;31.70;19.10;;;;;;5080944;28;20249;-57
2021/03/06 12:21:33;;;;;;;2.42;2.20;;;29.20;20.60;;;;;;5077580;28;20184;-55
2021/03/06 12:23:58;;;;;;;2.47;2.28;;;27.50;21.40;;;;;;5082735;28;20519;-51
2021/03/06 12:26:24;;;;;;;1.98;1.88;;;27.20;21.90;;;;;;5076633;28;20183;-47
2021/03/06 12:28:50;;;;;;;1.90;1.80;;;27.30;21.20;;;;;;5087115;28;20590;-51
2021/03/06 12:31:15;;;;;;;2.85;2.65;;;27.40;22.30;;;;;;5096359;28;20170;-51
2021/03/06 12:33:41;;;;;;;2.30;2.10;;;27.80;22.20;;;;;;5096918;28;20178;-47
2021/03/06 12:36:07;;;;;;;2.33;2.13;;;28.60;22.30;;;;;;5093027;28;20207;-57
2021/03/06 12:38:33;;;;;;;2.75;2.17;;;29.50;22.30;;;;;;5092794;28;20171;-47
2021/03/06 12:40:58;;;;;;;2.30;2.20;;;31.00;21.40;;;;;;5095474;28;20267;-56
2021/03/06 12:43:24;;;;;;;2.78;2.53;;;29.80;20.40;;;;;;5096594;28;20185;-54
2021/03/06 12:45:50;;;;;;;2.75;2.53;;;25.70;21.60;;;;;;5096314;28;20186;-46
2021/03/06 12:48:16;;;;;;;3.30;3.00;;;23.90;22.90;;;;;;5095812;28;20177;-56
2021/03/06 12:50:41;;;;;;;2.75;2.58;;;23.30;24.00;;;;;;5096218;28;20209;-49
2021/03/06 12:53:07;;;;;;;3.17;2.88;;;22.80;24.80;;;;;;5091574;28;20185;-55
2021/03/06 12:55:32;;;;;;;2.85;2.60;;;23.30;24.40;;;;;;5085755;28;20214;-51
2021/03/06 12:57:58;;;;;;;3.25;2.95;;;23.30;24.40;;;;;;5084561;28;20186;-47
2021/03/06 13:00:24;;;;;;;3.15;2.95;;;22.60;24.80;;;;;;5083918;28;20190;-55